Time;durP1;ratioP1;P1;durP2;ratioP2;P2;SDS_P1;SDS_P2;PMS_P1;PMS_P2;Temp;Humidity;BMP_temperature;BMP_pressure;BME280_temperature;BME280_humidity;BME280_pressure;Samples;Min_cycle;Max_cycle;Signal;HPM_P1;HPM_P2
2021/12/22 00:01:07;;;;;;;;;99.25;76.00;;;;;1.98;56.28;100379.97;5020287;28;9699;-72
2021/12/22 00:03:35;;;;;;;;;84.00;66.67;;;;;1.93;56.26;100372.91;5036322;28;9677;-74
2021/12/22 00:06:06;;;;;;;;;104.00;79.25;;;;;1.96;56.50;100379.88;5026598;28;9351;-72
2021/12/22 00:08:34;;;;;;;;;107.25;85.75;;;;;1.94;56.82;100369.53;5044187;28;9814;-73
2021/12/22 00:11:03;;;;;;;;;102.00;77.00;;;;;1.98;56.37;100379.97;5029211;28;9939;-74
2021/12/22 00:13:32;;;;;;;;;109.50;89.25;;;;;2.00;56.56;100378.34;4996332;28;10016;-73
2021/12/22 00:16:01;;;;;;;;;113.00;96.00;;;;;1.85;56.64;100381.97;5020886;28;10169;-74
2021/12/22 00:18:29;;;;;;;;;102.50;82.25;;;;;1.80;57.00;100383.44;4986903;28;10674;-74
2021/12/22 00:20:58;;;;;;;;;117.25;102.50;;;;;1.83;57.17;100382.69;5034519;28;10250;-73
2021/12/22 00:23:28;;;;;;;;;108.25;86.25;;;;;1.87;57.02;100382.94;5023146;28;11729;-73
2021/12/22 00:25:57;;;;;;;;;118.50;99.50;;;;;1.90;57.03;100377.03;5009988;28;10904;-73
2021/12/22 00:28:26;;;;;;;;;113.25;100.00;;;;;1.95;56.66;100376.44;5040005;28;11165;-74
2021/12/22 00:30:55;;;;;;;;;114.00;97.75;;;;;1.95;56.71;100379.00;5006824;28;10948;-73
2021/12/22 00:33:24;;;;;;;;;117.75;103.50;;;;;1.97;56.77;100373.03;5041637;28;10874;-74
2021/12/22 00:35:52;;;;;;;;;82.25;66.00;;;;;1.97;56.05;100373.94;5007519;28;11085;-74
2021/12/22 00:38:22;;;;;;;;;109.50;91.00;;;;;1.97;56.27;100383.34;5007611;28;9546;-74
2021/12/22 00:40:52;;;;;;;;;128.75;105.50;;;;;1.97;56.56;100378.19;5023617;28;10214;-74
2021/12/22 00:43:21;;;;;;;;;112.75;99.25;;;;;2.00;56.59;100386.94;5007221;28;11013;-75
2021/12/22 00:45:55;;;;;;;;;114.25;93.75;;;;;2.01;56.20;100381.00;5007118;28;10780;-73
2021/12/22 00:48:25;;;;;;;;;103.50;79.75;;;;;2.02;55.99;100384.44;5010204;28;10272;-74
2021/12/22 00:50:54;;;;;;;;;94.67;74.33;;;;;2.03;55.77;100381.94;4993658;28;10137;-73
2021/12/22 00:53:22;;;;;;;;;93.00;72.67;;;;;2.06;55.69;100381.19;5010115;28;9465;-74
2021/12/22 00:55:53;;;;;;;;;90.00;67.67;;;;;2.07;55.74;100390.69;4988882;28;9178;-73
2021/12/22 00:58:21;;;;;;;;;86.25;68.50;;;;;2.07;55.43;100391.56;5023399;28;8964;-74
2021/12/22 01:00:50;;;;;;;;;86.00;68.00;;;;;2.09;55.38;100389.94;5006871;28;8844;-73
2021/12/22 01:03:20;;;;;;;;;69.75;54.25;;;;;2.10;54.81;100393.44;4990609;28;8856;-73
2021/12/22 01:05:49;;;;;;;;;68.50;57.25;;;;;2.10;55.06;100399.44;5023571;28;9691;-74
2021/12/22 01:08:18;;;;;;;;;64.50;55.50;;;;;2.13;54.82;100393.53;4989743;28;8934;-74
2021/12/22 01:10:48;;;;;;;;;64.50;52.50;;;;;2.22;55.04;100396.56;5007086;28;8901;-74
2021/12/22 01:13:18;;;;;;;;;77.25;63.25;;;;;2.24;55.23;100399.22;5034454;28;8895;-73
2021/12/22 01:15:47;;;;;;;;;62.00;51.75;;;;;2.24;54.75;100397.50;5028436;28;8852;-74
2021/12/22 01:18:26;;;;;;;;;44.00;38.00;;;;;2.21;54.37;100397.38;5011543;28;8856;-75
2021/12/22 01:21:04;;;;;;;;;55.50;49.00;;;;;2.00;54.71;100409.22;5042374;28;9637;-73
2021/12/22 01:23:37;;;;;;;;;51.50;45.00;;;;;1.93;54.62;100406.34;5026262;28;8843;-76
2021/12/22 01:26:07;;;;;;;;;63.25;51.00;;;;;1.98;55.00;100404.00;5010636;28;8862;-75
2021/12/22 01:28:42;;;;;;;;;69.75;57.25;;;;;2.11;55.47;100400.31;5025759;28;8846;-74
2021/12/22 01:31:15;;;;;;;;;75.50;60.75;;;;;2.20;55.31;100387.88;5025163;28;8869;-74
2021/12/22 01:33:44;;;;;;;;;80.25;63.50;;;;;2.30;55.29;100396.91;5010809;28;8870;-74
2021/12/22 01:36:13;;;;;;;;;83.50;67.50;;;;;2.32;55.15;100392.72;5009332;28;8865;-74
2021/12/22 01:38:41;;;;;;;;;58.50;50.25;;;;;2.36;54.54;100396.31;5022436;28;8865;-73
2021/12/22 01:41:10;;;;;;;;;78.00;62.75;;;;;2.41;54.71;100392.25;5007903;28;8911;-74
2021/12/22 01:43:40;;;;;;;;;64.50;54.25;;;;;2.44;54.03;100387.25;5035520;28;8882;-73
2021/12/22 01:49:09;;;;;;;;;83.50;66.75;;;;;2.46;54.37;100391.66;5025344;28;8857;-74
2021/12/22 01:49:50;;;;;;;;;81.50;66.00;;;;;2.58;54.29;100386.19;5025325;28;8846;-74
2021/12/22 01:52:21;;;;;;;;;87.67;68.67;;;;;2.52;54.69;100389.38;4968650;28;8904;-74
2021/12/22 01:55:03;;;;;;;;;77.50;63.25;;;;;2.56;54.13;100387.81;4968789;28;9017;-73
2021/12/22 01:57:34;;;;;;;;;74.00;58.25;;;;;2.51;53.72;100372.16;4968174;28;9699;-74
2021/12/22 02:00:05;;;;;;;;;79.00;63.00;;;;;2.55;54.46;100378.31;4952128;28;8879;-74
2021/12/22 02:02:40;;;;;;;;;82.33;66.33;;;;;2.52;54.56;100373.91;4968547;28;9002;-74
2021/12/22 02:05:10;;;;;;;;;83.00;64.50;;;;;2.53;54.25;100369.63;4984452;28;8938;-72
2021/12/22 02:07:39;;;;;;;;;77.75;60.00;;;;;2.54;54.24;100374.00;4977892;28;8869;-73
2021/12/22 02:10:25;;;;;;;;;73.50;58.50;;;;;2.55;53.88;100378.31;4951017;28;8878;-73
2021/12/22 02:12:55;;;;;;;;;55.75;49.50;;;;;2.57;53.52;100375.81;4968258;28;8902;-74
2021/12/22 02:15:29;;;;;;;;;70.00;58.00;;;;;2.61;53.59;100380.28;4951672;28;8982;-72
2021/12/22 02:18:00;;;;;;;;;68.00;58.50;;;;;2.64;53.88;100383.00;4967889;28;9182;-72
2021/12/22 02:20:30;;;;;;;;;69.25;53.25;;;;;2.63;53.64;100384.72;4920186;28;8974;-74
2021/12/22 02:23:00;;;;;;;;;62.00;52.75;;;;;2.65;53.51;100385.66;4968108;28;8867;-73
2021/12/22 02:25:35;;;;;;;;;66.25;53.75;;;;;2.70;53.50;100391.00;4967840;28;9006;-73
2021/12/22 02:28:09;;;;;;;;;61.00;49.25;;;;;2.75;53.84;100393.78;4971060;28;8865;-74
2021/12/22 02:30:38;;;;;;;;;55.75;50.00;;;;;2.79;53.43;100385.38;4988863;28;8890;-75
2021/12/22 02:33:20;;;;;;;;;44.50;41.00;;;;;2.83;53.69;100379.56;5010279;28;9616;-75
2021/12/22 02:36:20;;;;;;;;;66.25;53.75;;;;;2.86;53.46;100375.41;5011757;28;8895;-73
2021/12/22 02:38:51;;;;;;;;;63.75;52.00;;;;;2.91;53.61;100376.50;5017660;28;8958;-73
2021/12/22 02:41:24;;;;;;;;;52.00;47.25;;;;;2.96;52.81;100378.41;5009564;28;8881;-74
2021/12/22 02:43:54;;;;;;;;;66.25;51.50;;;;;2.97;53.27;100377.56;5009775;28;8848;-74
2021/12/22 02:46:25;;;;;;;;;54.50;47.00;;;;;3.00;53.40;100376.00;5026238;28;8899;-74
2021/12/22 02:48:55;;;;;;;;;76.25;61.00;;;;;3.03;53.29;100372.69;5024980;28;8867;-74
2021/12/22 02:51:27;;;;;;;;;51.75;46.50;;;;;3.06;52.96;100372.81;5009950;28;8984;-73
2021/12/22 02:54:06;;;;;;;;;55.25;48.75;;;;;3.09;53.14;100373.81;5025991;28;8977;-75
2021/12/22 02:56:49;;;;;;;;;52.25;45.50;;;;;3.12;53.03;100376.53;5025869;28;8976;-73
2021/12/22 02:59:38;;;;;;;;;35.00;31.00;;;;;3.15;52.19;100380.94;5025256;28;8839;-72
2021/12/22 03:02:14;;;;;;;;;32.25;29.75;;;;;3.11;51.69;100372.19;5025315;28;8844;-73
2021/12/22 03:04:50;;;;;;;;;31.50;31.00;;;;;3.16;51.90;100371.50;5030654;28;9576;-74
2021/12/22 03:07:24;;;;;;;;;30.75;30.00;;;;;3.17;51.68;100365.53;5035489;28;8880;-74
2021/12/22 03:10:00;;;;;;;;;31.25;28.50;;;;;3.21;51.95;100364.84;4998907;28;8860;-73
2021/12/22 03:12:33;;;;;;;;;29.50;26.25;;;;;3.22;51.33;100367.50;5006613;28;8992;-74
2021/12/22 03:15:05;;;;;;;;;35.00;32.25;;;;;3.27;51.67;100373.75;5040179;28;8908;-75
2021/12/22 03:17:34;;;;;;;;;43.50;35.25;;;;;3.30;51.42;100371.28;4996227;28;9023;-74
2021/12/22 03:20:04;;;;;;;;;36.75;34.75;;;;;3.33;51.50;100365.38;5038811;28;8839;-73
2021/12/22 03:22:37;;;;;;;;;37.75;37.75;;;;;3.38;51.54;100374.16;5023902;28;8873;-73
2021/12/22 03:25:13;;;;;;;;;37.00;34.75;;;;;3.37;51.33;100362.13;5008058;28;8870;-73
2021/12/22 03:27:43;;;;;;;;;49.00;41.00;;;;;3.40;51.72;100359.63;4989685;28;8870;-73
2021/12/22 03:30:13;;;;;;;;;39.50;37.50;;;;;3.42;51.12;100363.19;5023352;28;9715;-73
2021/12/22 03:32:42;;;;;;;;;44.00;37.33;;;;;3.48;50.97;100360.88;5023595;28;8885;-74
2021/12/22 03:35:15;;;;;;;;;39.00;33.50;;;;;3.48;50.73;100363.44;5022935;28;8858;-74
2021/12/22 03:37:48;;;;;;;;;35.25;34.25;;;;;3.52;50.69;100361.88;5023541;28;8995;-74
2021/12/22 03:40:17;;;;;;;;;36.25;35.75;;;;;3.52;51.26;100354.13;5000293;28;8907;-74
2021/12/22 03:42:45;;;;;;;;;36.25;30.75;;;;;3.54;50.96;100356.78;5039323;28;8850;-74
2021/12/22 03:45:14;;;;;;;;;45.25;37.75;;;;;3.55;51.08;100353.38;5002469;28;9646;-75
2021/12/22 03:47:43;;;;;;;;;45.25;39.25;;;;;3.54;51.40;100356.78;5047541;28;8864;-75
2021/12/22 03:50:13;;;;;;;;;38.25;35.25;;;;;3.51;51.11;100357.50;5019732;28;8861;-73
2021/12/22 03:52:42;;;;;;;;;43.75;40.50;;;;;3.52;50.77;100361.88;5035693;28;8870;-74
2021/12/22 03:55:12;;;;;;;;;40.00;34.50;;;;;3.59;51.49;100361.31;5039019;28;8862;-74
2021/12/22 03:57:41;;;;;;;;;50.00;38.75;;;;;3.55;51.57;100351.66;5036999;28;8927;-73
2021/12/22 04:00:13;;;;;;;;;44.25;39.00;;;;;3.52;50.60;100356.72;5007423;28;9730;-74
2021/12/22 04:02:41;;;;;;;;;44.00;39.75;;;;;3.45;51.13;100363.31;5022124;28;8955;-74
2021/12/22 04:05:11;;;;;;;;;48.75;45.25;;;;;3.45;51.38;100368.47;5039103;28;8974;-74
2021/12/22 04:07:40;;;;;;;;;42.50;36.00;;;;;3.47;51.46;100368.53;5040025;28;8881;-73
2021/12/22 04:10:19;;;;;;;;;41.25;36.75;;;;;3.48;52.17;100370.31;5011931;28;9655;-73
2021/12/22 04:12:52;;;;;;;;;47.50;44.75;;;;;3.53;51.87;100381.66;4999531;28;8960;-76
2021/12/22 04:15:22;;;;;;;;;58.50;47.75;;;;;3.50;52.10;100377.28;5027322;28;8950;-74
2021/12/22 04:17:51;;;;;;;;;40.50;38.25;;;;;3.49;50.83;100375.50;5043265;28;8971;-74
2021/12/22 04:20:20;;;;;;;;;38.25;35.50;;;;;3.48;50.61;100373.75;5023695;28;8973;-73
2021/12/22 04:22:48;;;;;;;;;56.00;46.75;;;;;3.47;50.98;100371.09;5027092;28;8882;-74
2021/12/22 04:25:20;;;;;;;;;148.75;133.25;;;;;3.42;51.35;100373.50;5043526;28;8882;-73
2021/12/22 04:27:52;;;;;;;;;42.50;42.25;;;;;3.40;50.82;100367.38;5026089;28;11716;-74
2021/12/22 04:30:22;;;;;;;;;70.25;58.25;;;;;3.33;51.31;100373.13;5042895;28;8850;-75
2021/12/22 04:32:51;;;;;;;;;48.00;43.00;;;;;3.30;50.79;100372.97;5011400;28;8878;-75
2021/12/22 04:35:20;;;;;;;;;77.00;61.50;;;;;3.30;52.05;100371.28;5011644;28;8917;-74
2021/12/22 04:37:49;;;;;;;;;79.67;64.33;;;;;3.31;52.38;100367.03;5011462;28;8858;-74
2021/12/22 04:40:17;;;;;;;;;57.00;46.50;;;;;3.28;52.06;100370.34;4992904;28;8962;-74
2021/12/22 04:42:46;;;;;;;;;59.00;51.75;;;;;3.32;52.16;100366.19;5026323;28;8976;-73
2021/12/22 04:45:17;;;;;;;;;62.75;47.50;;;;;3.29;52.17;100374.69;4977107;28;8899;-75
2021/12/22 04:47:47;;;;;;;;;49.75;45.00;;;;;3.24;52.05;100380.47;5022739;28;8884;-73
2021/12/22 04:50:18;;;;;;;;;64.00;51.25;;;;;3.20;52.23;100379.44;5035107;28;8949;-73
2021/12/22 04:52:54;;;;;;;;;106.25;80.25;;;;;3.21;52.45;100390.63;5043120;28;8854;-74
2021/12/22 04:55:25;;;;;;;;;91.33;70.67;;;;;3.19;52.59;100389.69;5010859;28;9972;-73
2021/12/22 04:57:54;;;;;;;;;75.50;58.75;;;;;3.16;54.08;100386.97;5011135;28;9146;-74
2021/12/22 05:00:27;;;;;;;;;76.00;61.50;;;;;3.18;53.93;100385.38;5008683;28;9007;-73
2021/12/22 05:02:57;;;;;;;;;76.25;59.75;;;;;3.19;54.30;100392.25;5024273;28;8862;-74
2021/12/22 05:05:27;;;;;;;;;84.00;65.33;;;;;3.25;54.91;100395.09;5023067;28;8860;-73
2021/12/22 05:07:55;;;;;;;;;116.00;98.50;;;;;3.16;55.30;100387.88;5024569;28;9210;-75
2021/12/22 05:10:25;;;;;;;;;103.25;79.00;;;;;3.18;54.78;100385.38;5025746;28;10607;-74
2021/12/22 05:12:55;;;;;;;;;290.67;256.67;;;;;3.28;55.05;100382.34;5024481;28;10144;-73
2021/12/22 05:15:28;;;;;;;;;122.75;115.25;;;;;3.27;54.72;100386.63;4996153;28;8877;-75
2021/12/22 05:18:21;;;;;;;;;116.25;103.50;;;;;3.37;54.68;100384.44;5024135;28;11772;-75
2021/12/22 05:20:50;;;;;;;;;117.00;105.50;;;;;3.38;54.17;100393.91;5041933;28;10932;-74
2021/12/22 05:23:20;;;;;;;;;109.25;91.50;;;;;3.39;54.64;100398.28;5025297;28;10821;-74
2021/12/22 05:25:48;;;;;;;;;107.00;78.75;;;;;3.39;54.47;100393.13;5025424;28;10545;-74
2021/12/22 05:28:17;;;;;;;;;109.25;92.75;;;;;3.43;54.68;100387.28;5025818;28;10590;-73
2021/12/22 05:30:47;;;;;;;;;110.50;97.00;;;;;3.42;54.73;100400.97;5041708;28;11466;-74
2021/12/22 05:33:16;;;;;;;;;113.75;95.75;;;;;3.43;54.70;100400.16;5041369;28;10920;-74
2021/12/22 05:35:44;;;;;;;;;107.00;84.25;;;;;3.45;54.33;100399.41;5010138;28;10748;-73
2021/12/22 05:38:14;;;;;;;;;115.50;100.50;;;;;3.49;53.96;100398.69;5010118;28;11000;-74
2021/12/22 05:40:42;;;;;;;;;119.25;107.50;;;;;3.51;53.98;100409.09;4991370;28;11001;-72
2021/12/22 05:43:11;;;;;;;;;116.50;97.75;;;;;3.40;53.98;100405.19;5024811;28;11275;-74
2021/12/22 05:45:40;;;;;;;;;108.75;90.25;;;;;3.40;53.92;100416.38;5025001;28;11262;-74
2021/12/22 05:48:10;;;;;;;;;109.75;88.00;;;;;3.44;53.66;100423.44;5024276;28;10605;-74
2021/12/22 05:50:38;;;;;;;;;117.75;102.25;;;;;3.39;53.69;100421.47;5024833;28;10252;-74
2021/12/22 05:53:07;;;;;;;;;124.25;108.25;;;;;3.36;53.82;100414.47;5008973;28;11199;-73
2021/12/22 05:55:36;;;;;;;;;115.50;107.75;;;;;3.37;53.92;100425.69;5009833;28;11307;-74
2021/12/22 05:58:09;;;;;;;;;121.25;104.75;;;;;3.37;54.25;100416.25;5022502;28;12766;-75
2021/12/22 06:00:38;;;;;;;;;115.25;103.25;;;;;3.28;53.60;100427.03;5026253;28;11311;-73
2021/12/22 06:03:07;;;;;;;;;113.75;97.75;;;;;3.24;54.23;100432.00;5043074;28;10983;-74
2021/12/22 06:05:37;;;;;;;;;114.75;100.50;;;;;3.24;54.44;100429.44;5043108;28;11166;-73
2021/12/22 06:08:06;;;;;;;;;123.25;105.75;;;;;3.29;53.99;100423.66;5028332;28;11351;-75
2021/12/22 06:10:36;;;;;;;;;111.50;90.00;;;;;3.22;54.32;100436.22;5038374;28;11405;-74
2021/12/22 06:13:06;;;;;;;;;101.00;76.50;;;;;2.98;54.16;100434.31;5025293;28;10558;-74
2021/12/22 06:15:35;;;;;;;;;102.25;78.75;;;;;3.02;54.09;100430.19;5015493;28;10420;-73
2021/12/22 06:18:05;;;;;;;;;102.00;80.25;;;;;3.01;54.19;100439.63;5040478;28;10673;-74
2021/12/22 06:20:35;;;;;;;;;97.25;77.75;;;;;2.95;54.20;100444.50;5025974;28;10036;-73
2021/12/22 06:23:05;;;;;;;;;98.25;78.25;;;;;3.01;54.51;100446.47;5025459;28;10689;-74
2021/12/22 06:25:37;;;;;;;;;100.75;78.00;;;;;3.02;54.34;100449.09;5025822;28;10061;-74
2021/12/22 06:28:06;;;;;;;;;97.25;76.00;;;;;2.93;53.95;100451.28;5025705;28;9948;-74
2021/12/22 06:30:35;;;;;;;;;97.25;75.75;;;;;2.82;53.92;100448.22;5023091;28;9837;-75
2021/12/22 06:33:06;;;;;;;;;93.50;74.75;;;;;2.73;54.10;100445.22;5009011;28;9775;-75
2021/12/22 06:35:35;;;;;;;;;76.25;60.75;;;;;2.46;54.35;100458.59;5006587;28;9825;-73
2021/12/22 06:38:06;;;;;;;;;95.25;75.00;;;;;2.36;54.93;100458.94;5023622;28;9689;-74
2021/12/22 06:40:35;;;;;;;;;94.00;71.75;;;;;2.33;55.29;100467.44;4990388;28;9704;-73
2021/12/22 06:43:03;;;;;;;;;95.75;76.00;;;;;2.20;55.56;100462.50;5006136;28;9588;-73
2021/12/22 06:45:32;;;;;;;;;93.00;73.00;;;;;1.96;56.43;100472.47;5023754;28;9801;-73
2021/12/22 06:48:01;;;;;;;;;106.00;81.25;;;;;1.65;57.49;100477.81;5007917;28;9962;-74
2021/12/22 06:50:30;;;;;;;;;92.75;74.00;;;;;1.44;58.30;100478.50;5006053;28;10188;-75
2021/12/22 06:52:59;;;;;;;;;94.50;75.00;;;;;1.64;57.91;100483.75;5036953;28;9860;-74
2021/12/22 06:55:29;;;;;;;;;92.75;73.00;;;;;1.90;57.42;100492.75;5005227;28;9699;-74
2021/12/22 06:57:59;;;;;;;;;83.00;64.50;;;;;2.12;56.85;100487.00;5005756;28;9742;-74
2021/12/22 07:00:29;;;;;;;;;99.25;77.75;;;;;2.21;56.46;100496.81;5038046;28;9752;-73
2021/12/22 07:02:58;;;;;;;;;83.00;66.25;;;;;2.30;56.36;100498.16;5023128;28;9896;-77
2021/12/22 07:05:27;;;;;;;;;97.50;76.25;;;;;2.40;56.28;100499.50;5039038;28;10478;-75
2021/12/22 07:07:56;;;;;;;;;99.25;75.25;;;;;2.59;55.87;100498.66;5005461;28;10637;-75
2021/12/22 07:10:25;;;;;;;;;97.50;78.00;;;;;2.71;55.81;100504.38;5023173;28;10101;-73
2021/12/22 07:12:55;;;;;;;;;95.25;73.25;;;;;2.92;55.20;100504.47;5006482;28;10231;-75
2021/12/22 07:15:24;;;;;;;;;99.50;78.50;;;;;2.95;55.14;100516.63;5020915;28;10235;-76
2021/12/22 07:17:53;;;;;;;;;103.50;78.50;;;;;2.98;54.98;100510.72;5039024;28;10313;-75
2021/12/22 07:20:21;;;;;;;;;91.25;73.00;;;;;3.10;54.96;100506.13;5039468;28;10180;-73
2021/12/22 07:22:50;;;;;;;;;105.00;88.50;;;;;3.21;54.63;100507.47;5004857;28;10941;-75
2021/12/22 07:25:23;;;;;;;;;112.75;94.75;;;;;3.31;54.91;100509.66;5022474;28;10567;-74
2021/12/22 07:27:53;;;;;;;;;111.75;87.25;;;;;3.41;54.18;100510.06;5022782;28;10937;-75
2021/12/22 07:30:22;;;;;;;;;111.00;87.25;;;;;3.48;54.28;100517.28;4972582;28;10835;-75
2021/12/22 07:32:51;;;;;;;;;106.50;82.75;;;;;3.42;53.28;100512.72;5039087;28;10806;-73
2021/12/22 07:35:26;;;;;;;;;105.50;88.00;;;;;3.40;54.02;100519.47;5007204;28;10816;-74
2021/12/22 07:38:07;;;;;;;;;111.25;90.75;;;;;3.53;54.49;100518.34;5005726;28;10855;-74
2021/12/22 07:40:36;;;;;;;;;110.75;91.75;;;;;3.61;53.96;100511.81;5007191;28;11717;-74
2021/12/22 07:43:06;;;;;;;;;105.75;86.00;;;;;3.71;53.64;100520.84;5036183;28;10882;-74
2021/12/22 07:45:35;;;;;;;;;100.25;81.00;;;;;3.77;52.97;100531.41;5050240;28;10974;-75
2021/12/22 07:48:05;;;;;;;;;89.75;72.50;;;;;3.71;52.09;100533.72;5027882;28;11130;-75
2021/12/22 07:50:33;;;;;;;;;102.75;78.25;;;;;3.68;52.32;100528.44;5044876;28;10181;-74
2021/12/22 07:53:02;;;;;;;;;101.75;80.75;;;;;3.74;53.11;100525.22;5044412;28;10241;-74
2021/12/22 07:55:31;;;;;;;;;101.75;80.25;;;;;3.84;52.92;100527.41;5011391;28;9985;-72
2021/12/22 07:58:00;;;;;;;;;99.75;77.25;;;;;3.92;52.62;100523.44;5011507;28;10042;-73
2021/12/22 08:00:30;;;;;;;;;102.50;78.00;;;;;3.81;52.50;100528.13;5044444;28;9811;-74
2021/12/22 08:02:59;;;;;;;;;87.00;68.67;;;;;3.88;51.38;100535.31;5027181;28;10872;-74
2021/12/22 08:05:48;;;;;;;;;98.50;78.00;;;;;4.02;52.38;100532.44;5034794;28;9262;-77
2021/12/22 08:08:18;;;;;;;;;81.67;65.00;;;;;3.89;50.62;100539.69;5048493;28;10124;-75
2021/12/22 08:10:50;;;;;;;;;69.50;52.75;;;;;3.25;51.62;100544.59;5012661;28;9033;-74
2021/12/22 08:13:20;;;;;;;;;72.00;59.75;;;;;2.93;52.53;100551.75;5042686;28;8860;-75
2021/12/22 08:15:50;;;;;;;;;67.75;56.25;;;;;2.72;53.69;100549.94;5008172;28;8907;-74
2021/12/22 08:18:19;;;;;;;;;70.25;53.00;;;;;2.80;53.20;100557.13;5039570;28;8865;-74
2021/12/22 08:20:48;;;;;;;;;68.75;53.75;;;;;2.77;53.28;100557.88;5036656;28;8848;-74
2021/12/22 08:23:18;;;;;;;;;72.25;58.00;;;;;2.92;53.63;100563.72;5032717;28;8913;-75
2021/12/22 08:25:48;;;;;;;;;80.75;63.50;;;;;3.03;53.71;100564.25;5001068;28;8885;-73
2021/12/22 08:28:17;;;;;;;;;92.33;70.33;;;;;3.12;53.54;100563.78;4972102;28;8905;-74
2021/12/22 08:30:46;;;;;;;;;81.25;65.50;;;;;3.25;53.64;100562.63;5018844;28;9737;-73
2021/12/22 08:33:21;;;;;;;;;75.25;61.75;;;;;3.46;53.87;100570.44;5002219;28;8880;-72
2021/12/22 08:38:53;;;;;;;;;84.67;65.67;;;;;3.99;53.03;100568.44;5002463;28;8954;-74
2021/12/22 08:41:27;;;;;;;;;87.00;68.33;;;;;4.12;52.61;100575.00;4982040;28;9796;-75
2021/12/22 08:43:58;;;;;;;;;93.33;73.00;;;;;4.25;52.26;100572.09;5002022;28;9984;-73
2021/12/22 08:46:27;;;;;;;;;90.33;71.33;;;;;4.39;51.73;100577.88;5018207;28;9497;-73
2021/12/22 08:48:58;;;;;;;;;93.33;73.33;;;;;4.55;51.56;100581.94;5002055;28;9194;-73
2021/12/22 08:51:27;;;;;;;;;90.67;72.00;;;;;4.65;51.32;100582.38;4998962;28;9354;-74
2021/12/22 08:53:56;;;;;;;;;84.50;66.50;;;;;4.72;50.95;100580.91;4966298;28;9261;-76
2021/12/22 08:56:24;;;;;;;;;86.00;68.33;;;;;4.78;50.92;100591.50;5034692;28;8893;-74
2021/12/22 08:58:54;;;;;;;;;91.00;72.67;;;;;4.92;51.10;100591.16;4982654;28;9107;-75
2021/12/22 09:01:24;;;;;;;;;89.33;70.00;;;;;4.82;51.27;100593.38;5007352;28;9332;-75
2021/12/22 09:03:53;;;;;;;;;89.50;71.25;;;;;4.13;52.25;100597.44;5006091;28;10048;-73
2021/12/22 09:06:23;;;;;;;;;94.67;72.67;;;;;3.24;54.74;100612.44;4985493;28;10397;-74
2021/12/22 09:08:52;;;;;;;;;103.75;86.00;;;;;2.81;55.91;100611.28;5010765;28;9339;-74
2021/12/22 09:11:23;;;;;;;;;104.75;82.00;;;;;2.34;58.11;100613.34;5043474;28;10071;-74
2021/12/22 09:13:51;;;;;;;;;96.75;74.50;;;;;1.94;59.29;100618.13;5024891;28;10149;-75
2021/12/22 09:16:21;;;;;;;;;95.75;74.75;;;;;1.71;60.79;100619.53;5026702;28;9793;-74
2021/12/22 09:18:50;;;;;;;;;89.00;72.75;;;;;1.52;61.58;100613.41;5043362;28;10026;-74
2021/12/22 09:21:19;;;;;;;;;95.75;74.50;;;;;1.98;60.46;100620.06;5042347;28;10934;-75
2021/12/22 09:23:49;;;;;;;;;94.25;75.75;;;;;2.41;59.14;100611.06;5027113;28;10014;-73
2021/12/22 09:26:17;;;;;;;;;99.75;76.00;;;;;2.76;58.26;100609.28;5026133;28;9580;-73
2021/12/22 09:28:46;;;;;;;;;95.50;76.00;;;;;2.78;57.65;100612.81;5006123;28;9703;-73
2021/12/22 09:31:15;;;;;;;;;98.25;77.50;;;;;2.81;57.43;100607.84;5028253;28;9703;-74
2021/12/22 09:33:45;;;;;;;;;97.00;74.25;;;;;2.20;59.36;100605.72;5013238;28;9754;-73
2021/12/22 09:36:14;;;;;;;;;89.67;70.33;;;;;2.38;59.79;100605.75;5027402;28;9530;-72
2021/12/22 09:38:43;;;;;;;;;95.75;74.25;;;;;1.92;60.79;100609.47;5025834;28;9280;-73
2021/12/22 09:41:14;;;;;;;;;91.00;72.00;;;;;2.06;60.37;100603.34;5005294;28;10367;-72
2021/12/22 09:43:43;;;;;;;;;88.67;70.67;;;;;2.43;59.53;100601.72;5005310;28;9306;-73
2021/12/22 09:46:17;;;;;;;;;93.00;72.33;;;;;2.71;58.63;100601.38;5008308;28;9265;-74
2021/12/22 09:48:59;;;;;;;;;94.75;75.25;;;;;2.81;58.61;100594.94;5018061;28;9483;-73
2021/12/22 09:54:16;;;;;;;;;102.75;79.00;;;;;3.24;58.17;100594.38;5020991;28;9979;-73
2021/12/22 09:56:46;;;;;;;;;99.75;75.75;;;;;3.22;57.15;100590.88;5002589;28;10320;-74
2021/12/22 09:59:15;;;;;;;;;94.75;73.00;;;;;2.60;58.62;100593.13;5003946;28;9838;-72
2021/12/22 10:01:44;;;;;;;;;95.50;74.00;;;;;2.97;58.31;100597.44;5000680;28;9826;-73
2021/12/22 10:04:16;;;;;;;;;94.33;72.00;;;;;3.16;57.81;100596.63;5019719;28;9655;-73
2021/12/22 10:06:45;;;;;;;;;91.75;71.50;;;;;2.91;57.89;100594.56;5017508;28;9431;-75
2021/12/22 10:09:14;;;;;;;;;91.00;72.00;;;;;3.10;58.04;100594.63;5001584;28;9668;-74
2021/12/22 10:11:45;;;;;;;;;90.67;66.00;;;;;3.38;56.63;100588.16;5021059;28;9656;-75
2021/12/22 10:14:21;;;;;;;;;90.33;71.33;;;;;2.82;57.79;100596.75;5001036;28;9029;-75
2021/12/22 10:16:52;;;;;;;;;99.00;75.25;;;;;2.26;60.39;100596.59;5013868;28;9290;-74
2021/12/22 10:19:24;;;;;;;;;95.00;74.00;;;;;2.24;59.88;100600.78;5001257;28;9396;-74
2021/12/22 10:21:56;;;;;;;;;94.25;75.25;;;;;2.16;60.14;100603.81;5040180;28;9493;-73
2021/12/22 10:24:37;;;;;;;;;99.75;77.00;;;;;2.00;61.27;100597.00;5020561;28;9563;-73
2021/12/22 10:27:08;;;;;;;;;98.75;77.00;;;;;2.08;61.68;100600.81;5018145;28;9739;-73
2021/12/22 10:29:39;;;;;;;;;95.00;74.33;;;;;2.31;60.41;100602.00;5023217;28;9803;-72
2021/12/22 10:32:11;;;;;;;;;92.67;71.67;;;;;1.81;61.38;100601.19;5008505;28;9426;-74
2021/12/22 10:34:58;;;;;;;;;82.00;65.50;;;;;1.53;60.15;100601.44;5025403;28;9446;-74
2021/12/22 10:37:39;;;;;;;;;68.00;55.25;;;;;1.50;59.45;100609.00;5009413;28;8830;-73
2021/12/22 10:40:25;;;;;;;;;68.75;58.00;;;;;1.45;60.00;100611.31;5038034;28;9612;-75
2021/12/22 10:42:54;;;;;;;;;83.50;68.00;;;;;1.37;60.62;100597.19;5038620;28;9509;-75
2021/12/22 10:45:27;;;;;;;;;71.00;56.75;;;;;1.28;58.19;100601.81;5024343;28;8832;-74
2021/12/22 10:50:45;;;;;;;;;64.75;51.75;;;;;1.27;59.12;100597.50;5017192;28;8874;-72
2021/12/22 10:53:15;;;;;;;;;75.50;63.25;;;;;1.14;59.92;100593.38;5024642;28;8954;-72
2021/12/22 10:55:45;;;;;;;;;85.00;66.25;;;;;1.21;60.51;100589.44;5025308;28;8874;-73
2021/12/22 10:58:20;;;;;;;;;78.25;58.75;;;;;1.15;59.68;100593.47;5025207;28;8948;-73
2021/12/22 11:01:11;;;;;;;;;81.75;63.00;;;;;1.42;59.55;100588.03;5040975;28;8842;-74
2021/12/22 11:03:46;;;;;;;;;72.75;60.25;;;;;1.42;58.59;100585.47;5014577;28;8889;-74
2021/12/22 11:06:21;;;;;;;;;87.00;66.50;;;;;1.40;59.27;100579.38;5023150;28;9000;-75
2021/12/22 11:08:58;;;;;;;;;88.50;65.00;;;;;1.33;57.93;100579.84;5004162;28;8877;-76
2021/12/22 11:11:33;;;;;;;;;78.50;61.25;;;;;1.45;58.45;100577.03;5023283;28;8968;-74
2021/12/22 11:14:05;;;;;;;;;83.00;64.50;;;;;1.36;58.93;100572.25;5035419;28;8882;-73
2021/12/22 11:16:50;;;;;;;;;67.00;56.00;;;;;1.52;56.39;100567.13;5016992;28;8894;-73
2021/12/22 11:19:20;;;;;;;;;72.25;57.75;;;;;1.73;56.06;100572.50;5044688;28;8861;-74
2021/12/22 11:22:03;;;;;;;;;71.00;59.00;;;;;1.74;55.51;100574.28;5012337;28;8871;-73
2021/12/22 11:24:34;;;;;;;;;67.25;54.00;;;;;1.60;54.64;100566.66;5030794;28;8946;-73
2021/12/22 11:27:05;;;;;;;;;82.00;64.75;;;;;1.39;56.89;100569.00;5028297;28;8974;-73
2021/12/22 11:29:36;;;;;;;;;71.00;58.50;;;;;1.36;56.87;100572.25;4980933;28;8855;-74
2021/12/22 11:32:30;;;;;;;;;76.00;60.00;;;;;1.35;56.72;100568.81;4925381;29;8942;-74
2021/12/22 11:35:02;;;;;;;;;69.75;52.50;;;;;1.32;56.56;100565.19;4910916;29;8931;-75
2021/12/22 11:37:31;;;;;;;;;74.25;59.25;;;;;1.47;55.41;100566.00;4927470;29;8875;-74
2021/12/22 11:40:01;;;;;;;;;69.50;53.75;;;;;1.76;54.93;100561.50;4927780;29;8875;-74
2021/12/22 11:42:32;;;;;;;;;71.75;52.50;;;;;1.61;54.53;100560.69;4927170;29;8902;-74
2021/12/22 11:45:08;;;;;;;;;85.25;66.25;;;;;1.71;56.49;100563.84;4925125;29;8870;-74
2021/12/22 11:47:39;;;;;;;;;48.50;46.50;;;;;1.59;56.26;100562.31;4927645;29;9708;-75